Time;durP1;ratioP1;P1;durP2;ratioP2;P2;SDS_P1;SDS_P2;PMS_P1;PMS_P2;Temp;Humidity;BMP_temperature;BMP_pressure;BME280_temperature;BME280_humidity;BME280_pressure;Samples;Min_cycle;Max_cycle;Signal;HPM_P1;HPM_P2
2024/01/29 00:01:34;;;;;;;42.65;40.95;;;;;;;;;;4215569;28;20040;-59
2024/01/29 00:03:35;;;;;;;41.87;40.07;;;;;;;;;;4215715;28;20517;-58
2024/01/29 00:05:37;;;;;;;41.83;40.10;;;;;;;;;;4214932;28;20090;-58
2024/01/29 00:07:39;;;;;;;41.40;39.67;;;;;;;;;;4215355;28;20032;-59
2024/01/29 00:09:41;;;;;;;39.10;37.75;;;;;;;;;;4215388;28;20070;-58
2024/01/29 00:11:43;;;;;;;37.22;35.97;;;;;;;;;;4215261;28;20131;-58
2024/01/29 00:13:46;;;;;;;37.72;36.45;;;;;;;;;;4215308;28;20158;-58
2024/01/29 00:15:47;;;;;;;41.97;40.33;;;;;;;;;;4215323;28;20036;-58
2024/01/29 00:17:49;;;;;;;40.23;38.43;;;;;;;;;;4215057;28;20111;-58
2024/01/29 00:19:51;;;;;;;49.28;46.33;;;;;;;;;;4215215;28;20431;-58
2024/01/29 00:21:53;;;;;;;53.58;49.70;;;;;;;;;;4214228;28;20036;-58
2024/01/29 00:23:56;;;;;;;53.47;49.60;;;;;;;;;;4197910;28;20047;-59
2024/01/29 00:25:58;;;;;;;56.85;51.78;;;;;;;;;;4196944;28;20045;-59
2024/01/29 00:27:59;;;;;;;54.60;50.33;;;;;;;;;;4198155;28;20070;-58
2024/01/29 00:30:01;;;;;;;57.13;52.03;;;;;;;;;;4198284;28;20283;-57
2024/01/29 00:32:04;;;;;;;56.50;51.83;;;;;;;;;;4198260;28;20036;-58
2024/01/29 00:34:05;;;;;;;57.03;52.45;;;;;;;;;;4198420;28;20044;-58
2024/01/29 00:36:07;;;;;;;56.03;50.95;;;;;;;;;;4198396;28;20090;-58
2024/01/29 00:38:09;;;;;;;54.22;50.10;;;;;;;;;;4197868;28;20450;-58
2024/01/29 00:40:11;;;;;;;55.65;51.65;;;;;;;;;;4198258;28;20041;-58
2024/01/29 00:42:13;;;;;;;54.25;50.63;;;;;;;;;;4198360;28;20086;-58
2024/01/29 00:44:17;;;;;;;52.27;48.73;;;;;;;;;;4198350;28;20490;-59
2024/01/29 00:46:19;;;;;;;52.45;49.38;;;;;;;;;;4198157;28;20036;-59
2024/01/29 00:48:23;;;;;;;54.00;50.60;;;;;;;;;;4205113;28;20119;-59
2024/01/29 00:50:24;;;;;;;56.95;52.78;;;;;;;;;;4214766;28;20040;-58
2024/01/29 00:52:26;;;;;;;58.55;54.38;;;;;;;;;;4214560;28;20056;-58
2024/01/29 00:54:28;;;;;;;57.57;53.67;;;;;;;;;;4214952;28;20040;-58
2024/01/29 00:56:29;;;;;;;57.28;53.38;;;;;;;;;;4214808;28;20033;-58
2024/01/29 00:58:31;;;;;;;55.60;51.60;;;;;;;;;;4214564;28;20040;-58
2024/01/29 01:00:35;;;;;;;55.55;52.08;;;;;;;;;;4214576;28;20367;-58
2024/01/29 01:02:37;;;;;;;52.95;49.53;;;;;;;;;;4214280;28;20068;-59
2024/01/29 01:04:39;;;;;;;53.10;49.60;;;;;;;;;;4214971;28;20067;-58
2024/01/29 01:06:40;;;;;;;54.87;50.77;;;;;;;;;;4214691;28;20376;-58
2024/01/29 01:08:42;;;;;;;51.90;48.50;;;;;;;;;;4214508;28;20282;-58
2024/01/29 01:10:44;;;;;;;48.50;45.58;;;;;;;;;;4214659;28;20043;-58
2024/01/29 01:12:45;;;;;;;52.97;49.63;;;;;;;;;;4214637;28;20123;-58
2024/01/29 01:14:47;;;;;;;52.83;49.08;;;;;;;;;;4214389;28;20032;-58
2024/01/29 01:16:49;;;;;;;55.17;51.47;;;;;;;;;;4214404;28;20066;-58
2024/01/29 01:18:50;;;;;;;55.60;51.95;;;;;;;;;;4206863;28;20036;-59
2024/01/29 01:20:52;;;;;;;54.80;50.78;;;;;;;;;;4197771;28;20044;-59
2024/01/29 01:22:54;;;;;;;54.83;51.30;;;;;;;;;;4197461;28;20382;-58
2024/01/29 01:24:56;;;;;;;52.95;49.38;;;;;;;;;;4197610;28;20049;-59
2024/01/29 01:26:58;;;;;;;53.55;50.33;;;;;;;;;;4197553;28;20040;-59
2024/01/29 01:28:59;;;;;;;53.20;49.03;;;;;;;;;;4197483;28;20040;-58
2024/01/29 01:31:01;;;;;;;56.50;52.78;;;;;;;;;;4197391;28;20451;-58
2024/01/29 01:33:03;;;;;;;53.97;50.37;;;;;;;;;;4197694;28;20044;-58
2024/01/29 01:35:05;;;;;;;56.38;52.42;;;;;;;;;;4197655;28;20048;-59
2024/01/29 01:37:07;;;;;;;54.10;50.53;;;;;;;;;;4201588;28;20051;-59
2024/01/29 01:39:08;;;;;;;52.45;48.80;;;;;;;;;;4213811;28;20047;-58
2024/01/29 01:41:10;;;;;;;50.10;46.47;;;;;;;;;;4212793;28;20733;-58
2024/01/29 01:43:19;;;;;;;52.50;48.47;;;;;;;;;;4213359;28;20127;-58
2024/01/29 01:45:20;;;;;;;52.03;48.80;;;;;;;;;;4213409;28;20051;-58
2024/01/29 01:47:22;;;;;;;53.33;49.33;;;;;;;;;;4213335;28;20496;-58
2024/01/29 01:49:24;;;;;;;51.03;47.97;;;;;;;;;;4213602;28;20036;-58
2024/01/29 01:51:26;;;;;;;54.15;50.03;;;;;;;;;;4213888;28;20282;-58
2024/01/29 01:53:31;;;;;;;53.15;49.80;;;;;;;;;;4212420;28;20043;-58
2024/01/29 01:55:33;;;;;;;46.22;43.47;;;;;;;;;;4213788;28;20040;-58
2024/01/29 01:57:36;;;;;;;49.72;47.15;;;;;;;;;;4194599;28;20052;-58
2024/01/29 01:59:41;;;;;;;54.22;50.67;;;;;;;;;;4205387;28;20039;-58
2024/01/29 02:01:45;;;;;;;54.75;51.22;;;;;;;;;;4197412;28;20040;-58
2024/01/29 02:03:47;;;;;;;53.28;50.30;;;;;;;;;;4201236;28;20507;-58
2024/01/29 02:05:49;;;;;;;51.42;48.42;;;;;;;;;;4212635;28;20558;-57
2024/01/29 02:07:51;;;;;;;53.28;50.10;;;;;;;;;;4213965;28;20078;-57
2024/01/29 02:09:53;;;;;;;50.50;47.40;;;;;;;;;;4213731;28;20066;-57
2024/01/29 02:11:54;;;;;;;54.10;50.77;;;;;;;;;;4213508;28;20113;-57
2024/01/29 02:13:56;;;;;;;54.50;51.08;;;;;;;;;;4213801;28;20285;-57
2024/01/29 02:15:58;;;;;;;51.30;47.83;;;;;;;;;;4198521;28;20044;-57
2024/01/29 02:18:00;;;;;;;47.05;44.35;;;;;;;;;;4196823;28;20036;-57
2024/01/29 02:20:02;;;;;;;54.15;50.08;;;;;;;;;;4196031;28;20072;-57
2024/01/29 02:22:04;;;;;;;56.75;53.28;;;;;;;;;;4197198;28;20037;-57
2024/01/29 02:24:06;;;;;;;53.63;50.50;;;;;;;;;;4196996;28;20044;-57
2024/01/29 02:26:08;;;;;;;50.45;47.55;;;;;;;;;;4196911;28;20463;-57
2024/01/29 02:28:09;;;;;;;51.67;48.37;;;;;;;;;;4197071;28;20101;-57
2024/01/29 02:30:11;;;;;;;51.67;48.70;;;;;;;;;;4199861;28;20388;-57
2024/01/29 02:32:14;;;;;;;52.15;49.08;;;;;;;;;;4200474;28;20761;-57
2024/01/29 02:34:16;;;;;;;53.28;50.45;;;;;;;;;;4198978;28;20041;-57
2024/01/29 02:36:18;;;;;;;51.92;48.97;;;;;;;;;;4200102;28;20076;-58
2024/01/29 02:38:20;;;;;;;51.50;48.30;;;;;;;;;;4199910;28;20516;-57
2024/01/29 02:40:21;;;;;;;53.63;50.53;;;;;;;;;;4199977;28;20040;-58
2024/01/29 02:42:23;;;;;;;52.88;49.33;;;;;;;;;;4199141;28;20293;-57
2024/01/29 02:44:25;;;;;;;48.60;45.97;;;;;;;;;;4206217;28;20141;-57
2024/01/29 02:46:27;;;;;;;53.83;50.53;;;;;;;;;;4216688;28;20036;-57
2024/01/29 02:48:29;;;;;;;54.45;51.15;;;;;;;;;;4216468;28;20445;-58
2024/01/29 02:50:30;;;;;;;54.70;51.33;;;;;;;;;;4216934;28;20071;-58
2024/01/29 02:52:32;;;;;;;52.60;49.53;;;;;;;;;;4216546;28;20187;-57
2024/01/29 02:54:34;;;;;;;50.83;47.45;;;;;;;;;;4216610;28;20043;-57
2024/01/29 02:56:35;;;;;;;53.78;50.28;;;;;;;;;;4215403;28;20043;-57
2024/01/29 02:58:37;;;;;;;53.00;49.80;;;;;;;;;;4216538;28;20036;-58
2024/01/29 03:00:39;;;;;;;52.47;49.22;;;;;;;;;;4216424;28;20048;-57
2024/01/29 03:02:40;;;;;;;51.05;47.90;;;;;;;;;;4216562;28;20496;-57
2024/01/29 03:04:42;;;;;;;52.90;49.90;;;;;;;;;;4216504;28;20511;-57
2024/01/29 03:06:44;;;;;;;51.45;48.65;;;;;;;;;;4216386;28;20085;-58
2024/01/29 03:08:47;;;;;;;50.25;47.42;;;;;;;;;;4215471;28;20040;-57
2024/01/29 03:10:49;;;;;;;51.15;48.42;;;;;;;;;;4213690;28;20109;-57
2024/01/29 03:12:52;;;;;;;53.40;50.13;;;;;;;;;;4199649;28;20086;-57
2024/01/29 03:14:54;;;;;;;;;;;;;;;;;;4200430;28;20314;-58
2024/01/29 03:16:55;;;;;;;49.33;47.00;;;;;;;;;;4199670;28;20426;-59
2024/01/29 03:18:58;;;;;;;50.63;48.17;;;;;;;;;;4199417;28;20094;-58
2024/01/29 03:21:01;;;;;;;49.35;46.70;;;;;;;;;;4199507;28;20119;-58
2024/01/29 03:23:03;;;;;;;47.38;44.88;;;;;;;;;;4199574;28;20519;-59
2024/01/29 03:25:05;;;;;;;50.35;47.53;;;;;;;;;;4199620;28;20037;-58
2024/01/29 03:27:07;;;;;;;48.03;45.72;;;;;;;;;;4199690;28;20045;-58
2024/01/29 03:29:08;;;;;;;51.95;49.22;;;;;;;;;;4199576;28;20136;-59
2024/01/29 03:31:10;;;;;;;51.83;49.17;;;;;;;;;;4199674;28;20036;-57
2024/01/29 03:33:12;;;;;;;50.42;47.67;;;;;;;;;;4199225;28;20040;-58
2024/01/29 03:35:14;;;;;;;49.13;46.67;;;;;;;;;;4199213;28;20040;-58
2024/01/29 03:37:15;;;;;;;50.33;47.22;;;;;;;;;;4199280;28;20044;-58
2024/01/29 03:39:17;;;;;;;49.78;47.40;;;;;;;;;;4206806;28;20412;-58
2024/01/29 03:41:21;;;;;;;48.58;46.38;;;;;;;;;;4209348;28;20085;-58
2024/01/29 03:43:23;;;;;;;48.00;45.72;;;;;;;;;;4216204;28;20060;-58
2024/01/29 03:45:24;;;;;;;46.78;45.00;;;;;;;;;;4216262;28;20082;-58
2024/01/29 03:47:26;;;;;;;46.47;44.40;;;;;;;;;;4215920;28;20040;-58
2024/01/29 03:49:28;;;;;;;44.53;42.70;;;;;;;;;;4214514;28;20332;-58
2024/01/29 03:51:30;;;;;;;47.40;45.40;;;;;;;;;;4215848;28;20056;-58
2024/01/29 03:53:32;;;;;;;45.37;43.27;;;;;;;;;;4215896;28;20036;-58
2024/01/29 03:55:33;;;;;;;48.20;45.78;;;;;;;;;;4215964;28;20034;-58
2024/01/29 03:57:36;;;;;;;48.08;45.97;;;;;;;;;;4215615;28;20041;-59
2024/01/29 03:59:38;;;;;;;44.85;42.90;;;;;;;;;;4215578;28;20511;-58
2024/01/29 04:01:40;;;;;;;45.92;44.22;;;;;;;;;;4215422;28;20040;-58
2024/01/29 04:03:41;;;;;;;50.50;48.30;;;;;;;;;;4215423;28;20040;-58
2024/01/29 04:05:44;;;;;;;49.33;47.13;;;;;;;;;;4215614;28;20111;-58
2024/01/29 04:07:45;;;;;;;48.28;46.15;;;;;;;;;;4215360;28;20070;-58
2024/01/29 04:09:47;;;;;;;48.67;46.70;;;;;;;;;;4215426;28;20054;-58
2024/01/29 04:11:52;;;;;;;46.08;44.15;;;;;;;;;;4215248;28;20048;-58
2024/01/29 04:13:53;;;;;;;46.85;44.97;;;;;;;;;;4215409;28;20043;-58
2024/01/29 04:15:55;;;;;;;46.13;44.20;;;;;;;;;;4215604;28;20119;-58
2024/01/29 04:17:58;;;;;;;46.08;44.05;;;;;;;;;;4215219;28;20040;-58
2024/01/29 04:20:00;;;;;;;47.13;45.00;;;;;;;;;;4215218;28;20038;-58
2024/01/29 04:22:02;;;;;;;46.67;44.38;;;;;;;;;;4215555;28;20047;-58
2024/01/29 04:24:04;;;;;;;46.25;44.25;;;;;;;;;;4215432;28;20470;-58
2024/01/29 04:26:06;;;;;;;47.60;45.50;;;;;;;;;;4214992;28;20063;-57
2024/01/29 04:28:07;;;;;;;46.50;44.53;;;;;;;;;;4215352;28;20090;-58
2024/01/29 04:30:09;;;;;;;47.17;44.78;;;;;;;;;;4215305;28;20434;-57
2024/01/29 04:32:11;;;;;;;46.30;44.50;;;;;;;;;;4214978;28;20496;-57
2024/01/29 04:34:13;;;;;;;47.80;45.60;;;;;;;;;;4213988;28;20055;-57
2024/01/29 04:36:15;;;;;;;49.33;47.13;;;;;;;;;;4215177;28;20293;-57
2024/01/29 04:38:17;;;;;;;43.00;41.58;;;;;;;;;;4214765;28;20147;-57
2024/01/29 04:40:22;;;;;;;44.13;42.43;;;;;;;;;;4215089;28;20032;-57
2024/01/29 04:42:24;;;;;;;44.63;42.85;;;;;;;;;;4214919;28;20036;-57
2024/01/29 04:44:26;;;;;;;47.55;45.83;;;;;;;;;;4215044;28;20044;-57
2024/01/29 04:46:28;;;;;;;46.87;45.17;;;;;;;;;;4215181;28;20032;-57
2024/01/29 04:48:30;;;;;;;45.70;43.90;;;;;;;;;;4207324;28;20044;-57
2024/01/29 04:50:31;;;;;;;43.90;41.93;;;;;;;;;;4214966;28;20113;-58
2024/01/29 04:52:33;;;;;;;47.83;45.95;;;;;;;;;;4212406;28;20041;-57
2024/01/29 04:54:35;;;;;;;45.90;44.03;;;;;;;;;;4215031;28;20097;-58
2024/01/29 04:56:37;;;;;;;45.58;43.42;;;;;;;;;;4214747;28;20477;-57
2024/01/29 04:58:39;;;;;;;49.58;47.17;;;;;;;;;;4208822;28;20036;-57
2024/01/29 05:00:41;;;;;;;51.83;49.65;;;;;;;;;;4214815;28;20032;-57
2024/01/29 05:02:43;;;;;;;51.13;48.72;;;;;;;;;;4214593;28;20040;-58
2024/01/29 05:04:45;;;;;;;51.17;48.87;;;;;;;;;;4200489;28;20036;-57
2024/01/29 05:06:46;;;;;;;54.83;52.03;;;;;;;;;;4198112;28;20108;-57
2024/01/29 05:08:48;;;;;;;48.63;45.95;;;;;;;;;;4197872;28;20074;-57
2024/01/29 05:10:50;;;;;;;52.90;50.25;;;;;;;;;;4203959;28;20044;-57
2024/01/29 05:12:52;;;;;;;54.73;51.93;;;;;;;;;;4212374;28;20036;-57
2024/01/29 05:14:53;;;;;;;49.30;46.77;;;;;;;;;;4208553;28;20495;-57
2024/01/29 05:16:55;;;;;;;53.30;51.00;;;;;;;;;;4214373;28;20765;-57
2024/01/29 05:18:57;;;;;;;50.72;48.25;;;;;;;;;;4205490;28;20123;-57
2024/01/29 05:20:58;;;;;;;50.30;47.70;;;;;;;;;;4197812;28;20441;-57
2024/01/29 05:23:00;;;;;;;51.20;48.63;;;;;;;;;;4197796;28;20044;-59
2024/01/29 05:25:02;;;;;;;51.97;49.40;;;;;;;;;;4197668;28;20041;-57
2024/01/29 05:27:05;;;;;;;55.15;52.38;;;;;;;;;;4197781;28;20075;-57
2024/01/29 05:29:06;;;;;;;53.83;50.90;;;;;;;;;;4197605;28;20047;-58
2024/01/29 05:31:08;;;;;;;49.20;46.83;;;;;;;;;;4197613;28;20403;-57
2024/01/29 05:33:10;;;;;;;47.10;45.17;;;;;;;;;;4211669;28;20062;-58
2024/01/29 05:35:27;;;;;;;49.78;47.63;;;;;;;;;;4203008;28;20326;-58
2024/01/29 05:37:32;;;;;;;49.92;47.70;;;;;;;;;;4196476;28;20045;-58
2024/01/29 05:39:33;;;;;;;51.55;48.70;;;;;;;;;;4195936;28;20044;-58
2024/01/29 05:41:35;;;;;;;266.35;180.60;;;;;;;;;;4197328;28;20506;-58
2024/01/29 05:43:37;;;;;;;102.93;90.85;;;;;;;;;;4197392;28;20075;-58
2024/01/29 05:45:38;;;;;;;85.33;77.03;;;;;;;;;;4206575;28;20439;-58
2024/01/29 05:47:43;;;;;;;73.72;68.32;;;;;;;;;;4214005;28;20067;-58
2024/01/29 05:49:45;;;;;;;61.75;57.72;;;;;;;;;;4213800;28;20070;-58
2024/01/29 05:51:47;;;;;;;54.83;52.20;;;;;;;;;;4214360;28;20032;-58
2024/01/29 05:53:49;;;;;;;53.90;51.33;;;;;;;;;;4214315;28;20085;-58
2024/01/29 05:55:51;;;;;;;;;;;;;;;;;;4214458;28;20060;-58
2024/01/29 05:57:53;;;;;;;48.10;45.92;;;;;;;;;;4213906;28;19964;-58
2024/01/29 05:59:55;;;;;;;50.55;48.45;;;;;;;;;;4208495;28;20455;-58
2024/01/29 06:01:58;;;;;;;49.20;47.35;;;;;;;;;;4197479;28;20036;-58
2024/01/29 06:04:00;;;;;;;46.03;44.00;;;;;;;;;;4196479;28;20047;-58
2024/01/29 06:06:02;;;;;;;44.42;42.65;;;;;;;;;;4197284;28;20037;-58
2024/01/29 06:08:04;;;;;;;47.90;45.70;;;;;;;;;;4197245;28;20082;-58
2024/01/29 06:10:07;;;;;;;51.88;49.20;;;;;;;;;;4196990;28;20040;-58
2024/01/29 06:12:09;;;;;;;51.00;48.17;;;;;;;;;;4197215;28;20039;-58
2024/01/29 06:14:10;;;;;;;51.55;49.13;;;;;;;;;;4196927;28;20593;-59
2024/01/29 06:16:19;;;;;;;45.22;43.22;;;;;;;;;;4197461;28;20037;-58
2024/01/29 06:18:20;;;;;;;51.83;48.67;;;;;;;;;;4202980;28;20040;-57
2024/01/29 06:20:22;;;;;;;54.42;50.42;;;;;;;;;;4213758;28;20067;-62
2024/01/29 06:22:24;;;;;;;55.15;51.75;;;;;;;;;;4213089;28;20035;-63
2024/01/29 06:24:26;;;;;;;56.35;52.60;;;;;;;;;;4210267;28;20105;-62
2024/01/29 06:26:27;;;;;;;60.17;56.63;;;;;;;;;;4206491;28;20055;-62
2024/01/29 06:28:30;;;;;;;57.72;54.35;;;;;;;;;;4211704;28;20486;-62
2024/01/29 06:30:33;;;;;;;58.42;54.78;;;;;;;;;;4193273;28;20056;-62
2024/01/29 06:32:43;;;;;;;53.30;50.55;;;;;;;;;;4213504;28;20044;-62
2024/01/29 06:34:45;;;;;;;51.05;48.78;;;;;;;;;;4213509;28;20377;-62
2024/01/29 06:36:47;;;;;;;54.17;51.17;;;;;;;;;;4213578;28;20040;-62
2024/01/29 06:38:49;;;;;;;50.15;48.38;;;;;;;;;;4213298;28;20048;-61
2024/01/29 06:40:51;;;;;;;50.20;48.17;;;;;;;;;;4213217;28;20028;-62
2024/01/29 06:42:54;;;;;;;51.13;48.88;;;;;;;;;;4213421;28;20036;-61
2024/01/29 06:44:56;;;;;;;49.92;47.65;;;;;;;;;;4213629;28;20093;-62
2024/01/29 06:46:57;;;;;;;49.30;46.75;;;;;;;;;;4212715;28;20405;-63
2024/01/29 06:48:59;;;;;;;61.55;56.42;;;;;;;;;;4213507;28;20040;-62
2024/01/29 06:51:01;;;;;;;56.47;53.20;;;;;;;;;;4213650;28;20040;-62
2024/01/29 06:53:05;;;;;;;54.88;51.58;;;;;;;;;;4213474;28;20126;-63
2024/01/29 06:55:07;;;;;;;66.83;61.30;;;;;;;;;;4213355;28;20514;-62
2024/01/29 06:57:09;;;;;;;60.72;57.42;;;;;;;;;;4199878;28;20037;-63
2024/01/29 06:59:11;;;;;;;63.60;58.80;;;;;;;;;;4196062;28;20057;-63
2024/01/29 07:01:17;;;;;;;57.10;53.97;;;;;;;;;;4196571;28;20048;-63
2024/01/29 07:03:19;;;;;;;63.78;59.15;;;;;;;;;;4196850;28;20047;-62
2024/01/29 07:05:21;;;;;;;63.78;59.67;;;;;;;;;;4196559;28;20504;-62
2024/01/29 07:07:23;;;;;;;64.18;60.17;;;;;;;;;;4195223;28;20540;-62
2024/01/29 07:09:25;;;;;;;65.43;60.53;;;;;;;;;;4196862;28;20050;-62
2024/01/29 07:11:29;;;;;;;59.35;56.28;;;;;;;;;;4196749;28;20496;-62
2024/01/29 07:13:31;;;;;;;56.43;53.43;;;;;;;;;;4196677;28;20055;-63
2024/01/29 07:15:33;;;;;;;49.55;47.28;;;;;;;;;;4196504;28;20408;-62
2024/01/29 07:17:34;;;;;;;55.30;52.60;;;;;;;;;;4199634;28;20048;-62
2024/01/29 07:19:36;;;;;;;50.33;47.90;;;;;;;;;;4199378;28;20290;-62
2024/01/29 07:21:41;;;;;;;82.22;71.68;;;;;;;;;;4199647;28;20037;-62
2024/01/29 07:23:43;;;;;;;117.03;91.65;;;;;;;;;;4199435;28;20040;-62
2024/01/29 07:25:45;;;;;;;83.43;74.70;;;;;;;;;;4204599;28;20085;-62
2024/01/29 07:27:46;;;;;;;67.25;61.30;;;;;;;;;;4216081;28;20491;-63
2024/01/29 07:29:48;;;;;;;77.30;69.33;;;;;;;;;;4216065;28;20040;-62
2024/01/29 07:31:52;;;;;;;62.30;57.67;;;;;;;;;;4216009;28;20089;-63
2024/01/29 07:33:54;;;;;;;60.05;55.80;;;;;;;;;;4214969;28;20040;-62
2024/01/29 07:35:56;;;;;;;67.25;61.53;;;;;;;;;;4216017;28;20044;-62
2024/01/29 07:37:58;;;;;;;62.60;57.83;;;;;;;;;;4215893;28;20078;-62
2024/01/29 07:40:03;;;;;;;53.13;50.17;;;;;;;;;;4214567;28;20282;-62
2024/01/29 07:42:08;;;;;;;52.78;50.40;;;;;;;;;;4214509;28;20040;-62
2024/01/29 07:44:09;;;;;;;47.90;45.67;;;;;;;;;;4214638;28;20082;-62
2024/01/29 07:46:11;;;;;;;49.83;47.87;;;;;;;;;;4216007;28;20089;-62
2024/01/29 07:48:13;;;;;;;43.28;41.58;;;;;;;;;;4215317;28;20103;-62
2024/01/29 07:50:15;;;;;;;47.83;45.85;;;;;;;;;;4215870;28;20074;-62
2024/01/29 07:52:16;;;;;;;49.03;46.75;;;;;;;;;;4210373;28;20374;-62
2024/01/29 07:54:18;;;;;;;49.50;46.90;;;;;;;;;;4198950;28;20055;-62
2024/01/29 07:56:22;;;;;;;50.92;48.22;;;;;;;;;;4199335;28;20041;-62
2024/01/29 07:58:24;;;;;;;52.55;49.80;;;;;;;;;;4198891;28;20094;-62
2024/01/29 08:00:25;;;;;;;51.78;49.08;;;;;;;;;;4199079;28;20037;-62
2024/01/29 08:02:27;;;;;;;49.17;46.80;;;;;;;;;;4197537;28;20432;-62
2024/01/29 08:04:29;;;;;;;51.05;48.30;;;;;;;;;;4199105;28;20078;-62
2024/01/29 08:06:31;;;;;;;48.67;46.38;;;;;;;;;;4198623;28;20036;-62
2024/01/29 08:08:36;;;;;;;50.08;47.53;;;;;;;;;;4198984;28;20036;-62
2024/01/29 08:10:37;;;;;;;54.30;51.05;;;;;;;;;;4198635;28;20129;-62
2024/01/29 08:12:40;;;;;;;51.92;49.13;;;;;;;;;;4198835;28;20492;-62
2024/01/29 08:14:44;;;;;;;49.85;46.95;;;;;;;;;;4198891;28;20363;-62
2024/01/29 08:16:46;;;;;;;52.08;49.00;;;;;;;;;;4198781;28;20443;-62
2024/01/29 08:18:47;;;;;;;53.78;50.28;;;;;;;;;;4197100;28;20041;-62
2024/01/29 08:20:52;;;;;;;51.53;48.08;;;;;;;;;;4197581;28;20041;-62
2024/01/29 08:22:54;;;;;;;63.10;58.47;;;;;;;;;;4211209;28;20067;-62
2024/01/29 08:24:55;;;;;;;53.42;50.60;;;;;;;;;;4213852;28;20081;-62
2024/01/29 08:26:57;;;;;;;60.22;55.60;;;;;;;;;;4214705;28;20510;-62
2024/01/29 08:28:59;;;;;;;63.40;57.67;;;;;;;;;;4215218;28;20222;-62
2024/01/29 08:31:01;;;;;;;67.15;61.53;;;;;;;;;;4215342;28;20040;-62
2024/01/29 08:33:03;;;;;;;66.97;61.70;;;;;;;;;;4214935;28;20059;-62
2024/01/29 08:35:05;;;;;;;61.53;56.58;;;;;;;;;;4214998;28;20051;-61
2024/01/29 08:37:06;;;;;;;65.50;60.30;;;;;;;;;;4214919;28;20044;-62
2024/01/29 08:39:10;;;;;;;69.78;63.78;;;;;;;;;;4214664;28;20121;-62
2024/01/29 08:41:12;;;;;;;63.10;58.30;;;;;;;;;;4214779;28;20032;-62
2024/01/29 08:43:14;;;;;;;56.08;52.28;;;;;;;;;;4214879;28;20143;-62
2024/01/29 08:45:17;;;;;;;49.00;46.58;;;;;;;;;;4213456;28;20043;-62
2024/01/29 08:47:18;;;;;;;;;;;;;;;;;;4215147;28;20046;-62
2024/01/29 08:49:20;;;;;;;45.88;43.83;;;;;;;;;;4203852;28;19969;-62
2024/01/29 08:51:22;;;;;;;44.35;41.97;;;;;;;;;;4199228;28;20123;-62
2024/01/29 08:53:25;;;;;;;45.80;43.83;;;;;;;;;;4215063;28;20051;-62
2024/01/29 08:55:26;;;;;;;44.00;41.67;;;;;;;;;;4214811;28;20492;-62
2024/01/29 08:57:28;;;;;;;44.07;41.60;;;;;;;;;;4214677;28;20044;-62
2024/01/29 08:59:31;;;;;;;46.13;43.83;;;;;;;;;;4214003;28;20054;-62
2024/01/29 09:01:33;;;;;;;49.53;46.38;;;;;;;;;;4214692;28;20040;-61
2024/01/29 09:03:35;;;;;;;47.70;44.60;;;;;;;;;;4214574;28;20129;-62
2024/01/29 09:05:42;;;;;;;46.72;44.00;;;;;;;;;;4214865;28;20055;-61
2024/01/29 09:07:44;;;;;;;43.40;40.83;;;;;;;;;;4214694;28;20040;-61
2024/01/29 09:09:47;;;;;;;41.63;40.00;;;;;;;;;;4214571;28;20066;-62
2024/01/29 09:11:48;;;;;;;41.65;39.90;;;;;;;;;;4214433;28;20296;-61
2024/01/29 09:13:50;;;;;;;47.42;44.78;;;;;;;;;;4214432;28;20119;-62
2024/01/29 09:15:51;;;;;;;36.65;35.03;;;;;;;;;;4214334;28;20048;-62
2024/01/29 09:17:53;;;;;;;43.30;41.45;;;;;;;;;;4214463;28;20089;-62
2024/01/29 09:19:55;;;;;;;41.90;39.67;;;;;;;;;;4214267;28;20036;-62
2024/01/29 09:21:56;;;;;;;46.57;43.00;;;;;;;;;;4213288;28;20588;-62
2024/01/29 09:23:58;;;;;;;41.77;39.50;;;;;;;;;;4214601;28;20282;-62
2024/01/29 09:26:00;;;;;;;35.00;33.70;;;;;;;;;;4214352;28;20286;-62
2024/01/29 09:28:02;;;;;;;39.75;38.22;;;;;;;;;;4214445;28;20123;-62
2024/01/29 09:30:04;;;;;;;38.97;37.55;;;;;;;;;;4214341;28;20464;-62
2024/01/29 09:32:07;;;;;;;38.25;36.40;;;;;;;;;;4214467;28;20063;-62
2024/01/29 09:34:09;;;;;;;41.40;39.33;;;;;;;;;;4214438;28;20047;-62
2024/01/29 09:36:14;;;;;;;42.38;40.03;;;;;;;;;;4214287;28;20043;-62
2024/01/29 09:38:16;;;;;;;50.45;46.38;;;;;;;;;;4213549;28;20040;-63
2024/01/29 09:40:17;;;;;;;48.85;45.45;;;;;;;;;;4213586;28;20043;-63
2024/01/29 09:42:24;;;;;;;49.38;46.33;;;;;;;;;;4214153;28;20492;-63
2024/01/29 09:44:31;;;;;;;46.40;43.15;;;;;;;;;;4212375;28;20130;-62
2024/01/29 09:46:37;;;;;;;63.20;56.75;;;;;;;;;;4197598;28;20033;-62
2024/01/29 09:48:41;;;;;;;58.30;52.58;;;;;;;;;;4207817;28;20040;-62
2024/01/29 09:50:44;;;;;;;48.22;45.00;;;;;;;;;;4213949;28;20113;-62
2024/01/29 09:52:46;;;;;;;49.30;45.20;;;;;;;;;;4214033;28;20429;-62
2024/01/29 09:54:49;;;;;;;40.42;38.13;;;;;;;;;;4213978;28;20044;-62
2024/01/29 09:56:51;;;;;;;43.72;41.05;;;;;;;;;;4214157;28;20044;-62
2024/01/29 09:58:55;;;;;;;45.30;42.63;;;;;;;;;;4213997;28;20464;-63
2024/01/29 10:00:58;;;;;;;44.67;41.60;;;;;;;;;;4213989;28;20325;-62
2024/01/29 10:03:03;;;;;;;40.33;38.25;;;;;;;;;;4213994;28;20040;-62
2024/01/29 10:05:06;;;;;;;38.53;36.92;;;;;;;;;;4214052;28;20040;-63
2024/01/29 10:07:10;;;;;;;36.35;35.00;;;;;;;;;;4213967;28;20070;-63
2024/01/29 10:09:13;;;;;;;35.53;34.00;;;;;;;;;;4213992;28;20116;-62
2024/01/29 10:11:16;;;;;;;37.33;35.47;;;;;;;;;;4213834;28;20554;-62
2024/01/29 10:13:18;;;;;;;36.90;35.03;;;;;;;;;;4213777;28;20523;-62
2024/01/29 10:15:20;;;;;;;40.45;37.60;;;;;;;;;;4213612;28;20114;-62
2024/01/29 10:17:24;;;;;;;42.72;39.85;;;;;;;;;;4214207;28;20396;-63
2024/01/29 10:19:35;;;;;;;41.47;39.30;;;;;;;;;;4213776;28;20044;-63
2024/01/29 10:21:38;;;;;;;43.10;40.20;;;;;;;;;;4214007;28;20545;-63
2024/01/29 10:23:40;;;;;;;;;;;;;;;;;;4214038;28;20068;-63
2024/01/29 10:25:41;;;;;;;37.35;35.67;;;;;;;;;;4213445;28;20376;-63
2024/01/29 10:27:45;;;;;;;38.42;36.03;;;;;;;;;;4213865;28;20039;-63
2024/01/29 10:29:47;;;;;;;42.22;39.15;;;;;;;;;;4212747;28;20111;-63
2024/01/29 10:31:49;;;;;;;36.40;33.90;;;;;;;;;;4213599;28;20044;-63
2024/01/29 10:33:51;;;;;;;38.67;36.08;;;;;;;;;;4213868;28;20036;-63
2024/01/29 10:35:54;;;;;;;39.15;35.75;;;;;;;;;;4213892;28;20032;-63
2024/01/29 10:38:00;;;;;;;42.72;38.53;;;;;;;;;;4213590;28;20040;-63
2024/01/29 10:40:02;;;;;;;42.42;38.50;;;;;;;;;;4213509;28;20143;-63
2024/01/29 10:42:05;;;;;;;39.55;35.72;;;;;;;;;;4200876;28;20088;-63
2024/01/29 10:44:07;;;;;;;41.15;36.85;;;;;;;;;;4196908;28;20037;-63
2024/01/29 10:46:09;;;;;;;38.25;34.80;;;;;;;;;;4196796;28;20056;-63
2024/01/29 10:48:21;;;;;;;49.33;44.50;;;;;;;;;;4203179;28;20044;-63
2024/01/29 10:50:23;;;;;;;40.58;37.28;;;;;;;;;;4214740;28;20119;-63
2024/01/29 10:52:26;;;;;;;37.67;34.87;;;;;;;;;;4216530;28;20096;-63
2024/01/29 10:54:28;;;;;;;33.35;31.58;;;;;;;;;;4216874;28;20773;-63
2024/01/29 10:56:30;;;;;;;;;;;;;;;;;;4217337;28;20538;-63
2024/01/29 10:58:35;;;;;;;28.23;26.58;;;;;;;;;;4214711;28;19920;-63
2024/01/29 11:00:36;;;;;;;;;;;;;;;;;;4215569;28;20032;-63
2024/01/29 11:02:40;;;;;;;28.92;27.63;;;;;;;;;;4216067;28;20019;-63
2024/01/29 11:04:42;;;;;;;28.20;26.80;;;;;;;;;;4215586;28;20032;-63
2024/01/29 11:06:47;;;;;;;33.17;30.98;;;;;;;;;;4216273;28;20436;-63
2024/01/29 11:08:50;;;;;;;38.67;35.38;;;;;;;;;;4215723;28;20491;-63
2024/01/29 11:10:54;;;;;;;26.80;25.08;;;;;;;;;;4216185;28;20492;-63
2024/01/29 11:12:57;;;;;;;25.02;23.63;;;;;;;;;;4216237;28;20052;-63
2024/01/29 11:15:00;;;;;;;22.67;21.58;;;;;;;;;;4215887;28;20044;-63
2024/01/29 11:17:02;;;;;;;22.58;21.27;;;;;;;;;;4214383;28;20067;-64
2024/01/29 11:19:03;;;;;;;19.23;18.53;;;;;;;;;;4215752;28;20046;-64
2024/01/29 11:21:08;;;;;;;18.77;18.05;;;;;;;;;;4215675;28;20071;-63
2024/01/29 11:23:11;;;;;;;18.13;17.38;;;;;;;;;;4215220;28;20519;-63
2024/01/29 11:25:29;;;;;;;13.68;13.25;;;;;;;;;;4215837;28;20039;-63
2024/01/29 11:27:31;;;;;;;14.85;14.45;;;;;;;;;;4215338;28;20175;-63
2024/01/29 11:29:37;;;;;;;15.15;14.75;;;;;;;;;;4215919;28;20035;-63
2024/01/29 11:31:45;;;;;;;14.48;13.70;;;;;;;;;;4215366;28;20036;-63
2024/01/29 11:33:47;;;;;;;18.98;17.10;;;;;;;;;;4210745;28;20064;-63
2024/01/29 11:35:53;;;;;;;12.98;12.55;;;;;;;;;;4214774;28;20176;-63
2024/01/29 11:38:04;;;;;;;12.40;11.77;;;;;;;;;;4214351;28;20040;-63
2024/01/29 11:40:24;;;;;;;10.70;10.05;;;;;;;;;;4209249;28;20028;-63
2024/01/29 11:42:27;;;;;;;10.60;10.32;;;;;;;;;;4213501;28;20040;-63
2024/01/29 11:44:29;;;;;;;11.48;11.18;;;;;;;;;;4210528;28;20048;-63
2024/01/29 11:46:31;;;;;;;8.98;8.52;;;;;;;;;;4215385;28;20131;-63
2024/01/29 11:48:32;;;;;;;9.88;9.57;;;;;;;;;;4210595;28;20119;-63
2024/01/29 11:50:34;;;;;;;11.80;11.23;;;;;;;;;;4210011;28;20056;-63
2024/01/29 11:52:36;;;;;;;11.70;10.77;;;;;;;;;;4212575;28;20146;-63
2024/01/29 11:54:38;;;;;;;18.08;16.30;;;;;;;;;;4214950;28;20517;-63